createdAt,value
2019-04-26T00:00:52.088Z,977.71
2019-04-26T00:01:51.992Z,977.71
2019-04-26T00:02:51.932Z,977.69
2019-04-26T00:03:51.881Z,977.63
2019-04-26T00:04:51.827Z,977.57
2019-04-26T00:05:51.779Z,977.43
2019-04-26T00:06:51.725Z,977.32
2019-04-26T00:07:51.676Z,977.28
2019-04-26T00:08:51.621Z,977.31
2019-04-26T00:09:51.573Z,977.40
2019-04-26T00:10:51.524Z,977.64
2019-04-26T00:11:51.466Z,977.90
2019-04-26T00:12:51.415Z,978.03
2019-04-26T00:13:51.367Z,978.11
2019-04-26T00:14:51.311Z,978.02
2019-04-26T00:15:51.274Z,977.93
2019-04-26T00:16:51.208Z,977.78
2019-04-26T00:17:51.156Z,977.68
2019-04-26T00:18:51.104Z,977.68
2019-04-26T00:19:51.052Z,977.69
2019-04-26T00:20:51.001Z,977.80
2019-04-26T00:21:50.949Z,977.80
2019-04-26T00:22:50.897Z,977.82
2019-04-26T00:23:50.846Z,977.89
2019-04-26T00:24:50.794Z,977.91
2019-04-26T00:25:50.742Z,977.82
2019-04-26T00:26:50.691Z,977.85
2019-04-26T00:27:50.641Z,977.69
2019-04-26T00:28:50.586Z,977.68
2019-04-26T00:29:50.535Z,977.64
2019-04-26T00:30:50.566Z,977.68
2019-04-26T00:31:50.431Z,977.70
2019-04-26T00:32:50.379Z,977.72
2019-04-26T00:33:50.328Z,977.73
2019-04-26T00:34:50.283Z,977.77
2019-04-26T00:35:50.224Z,977.78
2019-04-26T00:36:50.172Z,977.76
2019-04-26T00:37:50.121Z,977.80
2019-04-26T00:38:50.072Z,977.77
2019-04-26T00:39:50.016Z,977.77
2019-04-26T00:40:49.965Z,977.80
2019-04-26T00:41:49.913Z,977.86
2019-04-26T00:42:49.904Z,977.92
2019-04-26T00:43:49.814Z,977.93
2019-04-26T00:44:49.758Z,977.96
2019-04-26T00:45:49.706Z,977.96
2019-04-26T00:46:49.655Z,977.96
2019-04-26T00:47:49.603Z,977.98
2019-04-26T00:48:49.551Z,977.95
2019-04-26T00:49:49.499Z,977.88
2019-04-26T00:50:49.447Z,977.82
2019-04-26T00:51:49.394Z,977.73
2019-04-26T00:52:49.413Z,977.70
2019-04-26T00:53:49.293Z,977.68
2019-04-26T00:54:49.240Z,977.68
2019-04-26T00:55:49.187Z,977.68
2019-04-26T00:56:49.140Z,977.65
2019-04-26T00:57:49.083Z,977.69
2019-04-26T00:58:49.031Z,977.72
2019-04-26T00:59:48.981Z,977.76
2019-04-26T01:00:48.927Z,977.77
2019-04-26T01:01:48.876Z,977.84
2019-04-26T01:02:48.823Z,977.86
2019-04-26T01:03:48.772Z,977.91
2019-04-26T01:04:48.719Z,977.97
2019-04-26T01:05:59.516Z,977.95
2019-04-26T01:06:48.618Z,978.01
2019-04-26T01:07:48.564Z,977.97
2019-04-26T01:08:51.137Z,978.01
2019-04-26T01:09:48.461Z,978.03
2019-04-26T01:10:48.419Z,978.04
2019-04-26T01:11:48.355Z,978.05
2019-04-26T01:12:48.304Z,978.00
2019-04-26T01:13:48.252Z,978.01
2019-04-26T01:14:48.200Z,978.06
2019-04-26T01:15:48.147Z,978.09
2019-04-26T01:16:48.097Z,978.10
2019-04-26T01:17:48.044Z,978.06
2019-04-26T01:18:47.995Z,978.06
2019-04-26T01:19:47.938Z,978.00
2019-04-26T01:20:47.887Z,978.03
2019-04-26T01:21:47.834Z,978.08
2019-04-26T01:22:47.782Z,978.05
2019-04-26T01:23:47.730Z,978.07
2019-04-26T01:24:47.680Z,978.10
2019-04-26T01:25:47.626Z,978.07
2019-04-26T01:26:47.577Z,978.02
2019-04-26T01:27:47.526Z,978.05
2019-04-26T01:28:47.470Z,978.06
2019-04-26T01:29:47.419Z,978.05
2019-04-26T01:30:47.367Z,978.06
2019-04-26T01:31:47.315Z,978.03
2019-04-26T01:32:47.262Z,978.04
2019-04-26T01:33:47.210Z,978.04
2019-04-26T01:34:47.157Z,978.00
2019-04-26T01:35:47.105Z,977.99
2019-04-26T01:36:47.054Z,978.04
2019-04-26T01:37:47.000Z,978.06
2019-04-26T01:38:46.956Z,978.10
2019-04-26T01:39:46.896Z,978.19
2019-04-26T01:40:46.844Z,978.19
2019-04-26T01:41:46.793Z,978.17
2019-04-26T01:42:46.740Z,978.20
2019-04-26T01:43:46.687Z,978.24
2019-04-26T01:44:46.635Z,978.28
2019-04-26T01:45:46.583Z,978.35
2019-04-26T01:46:46.532Z,978.30
2019-04-26T01:47:46.478Z,978.32
2019-04-26T01:48:46.426Z,978.20
2019-04-26T01:49:46.376Z,978.15
2019-04-26T01:50:46.322Z,978.15
2019-04-26T01:51:46.273Z,978.15
2019-04-26T01:52:46.219Z,978.13
2019-04-26T01:53:46.166Z,978.15
2019-04-26T01:54:46.113Z,978.05
2019-04-26T01:55:46.071Z,978.06
2019-04-26T01:56:46.009Z,978.02
2019-04-26T01:57:45.957Z,978.00
2019-04-26T01:58:45.904Z,978.05
2019-04-26T01:59:45.856Z,978.14
2019-04-26T02:00:45.799Z,978.18
2019-04-26T02:01:45.748Z,978.24
2019-04-26T02:02:45.696Z,978.26
2019-04-26T02:03:45.643Z,978.30
2019-04-26T02:04:45.590Z,978.33
2019-04-26T02:05:45.540Z,978.33
2019-04-26T02:06:45.489Z,978.36
2019-04-26T02:07:45.433Z,978.33
2019-04-26T02:08:45.380Z,978.30
2019-04-26T02:09:45.328Z,978.33
2019-04-26T02:10:45.276Z,978.31
2019-04-26T02:11:45.223Z,978.22
2019-04-26T02:12:45.180Z,978.19
2019-04-26T02:13:45.121Z,978.19
2019-04-26T02:14:45.068Z,978.19
2019-04-26T02:15:45.013Z,978.22
2019-04-26T02:16:44.965Z,978.24
2019-04-26T02:17:44.910Z,978.25
2019-04-26T02:18:44.858Z,978.22
2019-04-26T02:19:44.805Z,978.23
2019-04-26T02:20:44.752Z,978.19
2019-04-26T02:21:44.699Z,978.20
2019-04-26T02:22:44.648Z,978.19
2019-04-26T02:23:44.594Z,978.23
2019-04-26T02:24:44.542Z,978.23
2019-04-26T02:25:44.491Z,978.27
2019-04-26T02:26:44.439Z,978.35
2019-04-26T02:27:44.391Z,978.39
2019-04-26T02:28:44.332Z,978.42
2019-04-26T02:29:44.281Z,978.42
2019-04-26T02:30:44.229Z,978.41
2019-04-26T02:31:44.175Z,978.43
2019-04-26T02:32:44.127Z,978.39
2019-04-26T02:33:44.071Z,978.37
2019-04-26T02:34:44.020Z,978.34
2019-04-26T02:35:43.970Z,978.40
2019-04-26T02:36:57.377Z,978.34
2019-04-26T02:37:43.864Z,978.37
2019-04-26T02:38:43.809Z,978.42
2019-04-26T02:39:43.758Z,978.43
2019-04-26T02:40:43.707Z,978.47
2019-04-26T02:41:43.651Z,978.47
2019-04-26T02:42:43.598Z,978.42
2019-04-26T02:43:43.546Z,978.37
2019-04-26T02:44:43.495Z,978.41
2019-04-26T02:45:43.444Z,978.41
2019-04-26T02:46:43.392Z,978.40
2019-04-26T02:47:43.343Z,978.42
2019-04-26T02:48:43.282Z,978.36
2019-04-26T02:49:43.230Z,978.38
2019-04-26T02:50:43.177Z,978.38
2019-04-26T02:51:43.284Z,978.35
2019-04-26T02:52:43.073Z,978.37
2019-04-26T02:53:43.023Z,978.38
2019-04-26T02:54:42.967Z,978.42
2019-04-26T02:55:42.914Z,978.41
2019-04-26T02:56:43.768Z,978.45
2019-04-26T02:57:42.813Z,978.43
2019-04-26T02:58:42.757Z,978.49
2019-04-26T02:59:42.713Z,978.46
2019-04-26T03:00:42.652Z,978.42
2019-04-26T03:01:42.603Z,978.33
2019-04-26T03:02:42.547Z,978.32
2019-04-26T03:03:42.494Z,978.34
2019-04-26T03:04:42.444Z,978.43
2019-04-26T03:05:42.390Z,978.51
2019-04-26T03:06:42.866Z,978.53
2019-04-26T03:07:42.776Z,978.54
2019-04-26T03:08:42.761Z,978.48
2019-04-26T03:09:43.156Z,978.47
2019-04-26T03:10:43.495Z,978.45
2019-04-26T03:11:43.342Z,978.48
2019-04-26T03:12:43.162Z,978.47
2019-04-26T03:13:43.543Z,978.47
2019-04-26T03:14:42.147Z,978.45
2019-04-26T03:15:42.678Z,978.47
2019-04-26T03:16:42.967Z,978.38
2019-04-26T03:17:42.951Z,978.37
2019-04-26T03:18:43.063Z,978.32
2019-04-26T03:19:43.042Z,978.32
2019-04-26T03:20:42.259Z,978.27
2019-04-26T03:21:41.546Z,978.32
2019-04-26T03:22:42.717Z,978.24
2019-04-26T03:23:56.999Z,978.15
2019-04-26T03:24:42.583Z,978.11
2019-04-26T03:25:42.252Z,978.14
2019-04-26T03:26:43.138Z,978.20
2019-04-26T03:27:43.078Z,978.23
2019-04-26T03:28:43.476Z,978.19
2019-04-26T03:29:42.028Z,978.21
2019-04-26T03:30:48.725Z,978.23
2019-04-26T03:31:49.647Z,978.27
2019-04-26T03:32:50.339Z,978.26
2019-04-26T03:33:52.157Z,978.23
2019-04-26T03:34:50.760Z,978.19
2019-04-26T03:35:54.424Z,978.13
2019-04-26T03:36:42.475Z,978.10
2019-04-26T03:37:42.660Z,978.13
2019-04-26T03:38:41.892Z,978.26
2019-04-26T03:39:42.177Z,978.28
2019-04-26T03:40:42.438Z,978.36
2019-04-26T03:41:42.169Z,978.34
2019-04-26T03:42:42.210Z,978.34
2019-04-26T03:43:41.221Z,978.34
2019-04-26T03:44:41.123Z,978.34
2019-04-26T03:45:42.423Z,978.36
2019-04-26T03:46:41.833Z,978.38
2019-04-26T03:47:42.663Z,978.35
2019-04-26T03:48:41.702Z,978.34
2019-04-26T03:49:41.527Z,978.31
2019-04-26T03:50:41.044Z,978.33
2019-04-26T03:51:41.214Z,978.36
2019-04-26T03:52:41.555Z,978.37
2019-04-26T03:53:41.821Z,978.37
2019-04-26T03:54:40.993Z,978.43
2019-04-26T03:55:40.298Z,978.41
2019-04-26T03:56:41.465Z,978.36
2019-04-26T03:57:40.740Z,978.36
2019-04-26T03:58:40.473Z,978.37
2019-04-26T03:59:40.730Z,978.30
2019-04-26T04:00:40.850Z,978.36
2019-04-26T04:01:40.822Z,978.34
2019-04-26T04:02:40.909Z,978.39
2019-04-26T04:03:41.636Z,978.42
2019-04-26T04:04:41.037Z,978.43
2019-04-26T04:05:40.105Z,978.45
2019-04-26T04:06:56.771Z,978.47
2019-04-26T04:07:45.527Z,978.44
2019-04-26T04:08:40.750Z,978.43
2019-04-26T04:09:39.802Z,978.42
2019-04-26T04:10:40.009Z,978.44
2019-04-26T04:11:40.839Z,978.46
2019-04-26T04:12:41.433Z,978.50
2019-04-26T04:13:40.735Z,978.55
2019-04-26T04:14:40.513Z,978.53
2019-04-26T04:15:40.070Z,978.53
2019-04-26T04:16:40.634Z,978.51
2019-04-26T04:17:39.645Z,978.49
2019-04-26T04:18:40.167Z,978.53
2019-04-26T04:19:40.008Z,978.56
2019-04-26T04:20:40.185Z,978.56
2019-04-26T04:21:39.394Z,978.58
2019-04-26T04:22:40.861Z,978.64
2019-04-26T04:23:39.760Z,978.62
2019-04-26T04:24:39.777Z,978.55
2019-04-26T04:25:41.173Z,978.61
2019-04-26T04:26:39.725Z,978.59
2019-04-26T04:27:39.436Z,978.64
2019-04-26T04:28:38.634Z,978.61
2019-04-26T04:29:46.076Z,978.67
2019-04-26T04:30:38.637Z,978.72
2019-04-26T04:31:38.390Z,978.67
2019-04-26T04:32:39.678Z,978.60
2019-04-26T04:33:37.741Z,978.57
2019-04-26T04:34:37.685Z,978.60
2019-04-26T04:35:37.630Z,978.63
2019-04-26T04:36:37.576Z,978.67
2019-04-26T04:37:56.322Z,978.70
2019-04-26T04:38:37.470Z,978.66
2019-04-26T04:39:37.416Z,978.62
2019-04-26T04:40:37.383Z,978.58
2019-04-26T04:41:37.316Z,978.51
2019-04-26T04:42:37.326Z,978.49
2019-04-26T04:43:37.204Z,978.55
2019-04-26T04:44:37.150Z,978.65
2019-04-26T04:45:37.116Z,978.74
2019-04-26T04:46:37.044Z,978.81
2019-04-26T04:47:36.991Z,978.82
2019-04-26T04:48:36.939Z,978.77
2019-04-26T04:49:36.884Z,978.77
2019-04-26T04:50:36.832Z,978.85
2019-04-26T04:51:36.779Z,978.75
2019-04-26T04:52:36.725Z,978.79
2019-04-26T04:53:36.672Z,978.74
2019-04-26T04:54:36.618Z,978.86
2019-04-26T04:55:36.571Z,978.87
2019-04-26T04:56:36.514Z,978.91
2019-04-26T04:57:36.459Z,978.91
2019-04-26T04:58:36.407Z,978.88
2019-04-26T04:59:36.352Z,978.79
2019-04-26T05:00:36.300Z,978.73
2019-04-26T05:01:36.247Z,978.78
2019-04-26T05:02:36.227Z,978.86
2019-04-26T05:03:36.190Z,978.91
2019-04-26T05:04:36.098Z,978.97
2019-04-26T05:05:36.035Z,978.97
2019-04-26T05:06:35.980Z,979.07
2019-04-26T05:07:35.931Z,979.06
2019-04-26T05:08:35.873Z,979.05
2019-04-26T05:09:35.821Z,979.05
2019-04-26T05:10:35.768Z,979.10
2019-04-26T05:11:35.715Z,979.16
2019-04-26T05:12:35.663Z,979.27
2019-04-26T05:13:35.609Z,979.29
2019-04-26T05:14:35.555Z,979.27
2019-04-26T05:15:35.503Z,979.33
2019-04-26T05:16:35.448Z,979.37
2019-04-26T05:17:35.395Z,979.38
2019-04-26T05:18:35.342Z,979.46
2019-04-26T05:19:35.288Z,979.43
2019-04-26T05:20:35.234Z,979.47
2019-04-26T05:21:35.181Z,979.43
2019-04-26T05:22:35.130Z,979.38
2019-04-26T05:23:35.076Z,979.45
2019-04-26T05:24:35.023Z,979.48
2019-04-26T05:25:34.969Z,979.48
2019-04-26T05:26:34.916Z,979.45
2019-04-26T05:27:34.870Z,979.41
2019-04-26T05:28:34.808Z,979.49
2019-04-26T05:29:34.758Z,979.50
2019-04-26T05:30:34.703Z,979.57
2019-04-26T05:31:34.649Z,979.66
2019-04-26T05:32:34.595Z,979.70
2019-04-26T05:33:34.543Z,979.67
2019-04-26T05:34:34.495Z,979.63
2019-04-26T05:35:34.440Z,979.69
2019-04-26T05:36:34.383Z,979.71
2019-04-26T05:37:37.034Z,979.71
2019-04-26T05:38:34.277Z,979.79
2019-04-26T05:39:34.222Z,979.81
2019-04-26T05:40:34.172Z,979.83
2019-04-26T05:41:34.116Z,979.91
2019-04-26T05:42:34.063Z,979.85
2019-04-26T05:43:34.012Z,979.88
2019-04-26T05:44:33.958Z,979.89
2019-04-26T05:45:33.904Z,979.85
2019-04-26T05:46:33.850Z,979.86
2019-04-26T05:47:33.796Z,979.91
2019-04-26T05:48:33.743Z,980.05
2019-04-26T05:49:33.690Z,980.12
2019-04-26T05:50:33.639Z,980.12
2019-04-26T05:51:33.584Z,980.04
2019-04-26T05:52:33.530Z,980.00
2019-04-26T05:53:33.476Z,979.96
2019-04-26T05:54:33.424Z,979.96
2019-04-26T05:55:33.369Z,979.96
2019-04-26T05:56:33.317Z,979.99
2019-04-26T05:57:33.268Z,980.03
2019-04-26T05:58:33.213Z,980.06
2019-04-26T05:59:33.159Z,980.10
2019-04-26T06:00:33.107Z,980.11
2019-04-26T06:01:33.051Z,980.13
2019-04-26T06:02:32.998Z,980.13
2019-04-26T06:03:32.944Z,980.17
2019-04-26T06:04:32.890Z,980.16
2019-04-26T06:05:32.837Z,980.18
2019-04-26T06:06:32.785Z,980.24
2019-04-26T06:07:32.730Z,980.23
2019-04-26T06:08:32.677Z,980.17
2019-04-26T06:09:32.627Z,980.13
2019-04-26T06:10:32.579Z,980.15
2019-04-26T06:11:32.516Z,980.13
2019-04-26T06:12:32.463Z,980.18
2019-04-26T06:13:32.410Z,980.22
2019-04-26T06:14:32.357Z,980.26
2019-04-26T06:15:32.303Z,980.26
2019-04-26T06:16:32.249Z,980.28
2019-04-26T06:17:33.653Z,980.25
2019-04-26T06:18:32.143Z,980.22
2019-04-26T06:19:32.089Z,980.23
2019-04-26T06:20:32.036Z,980.20
2019-04-26T06:21:31.983Z,980.17
2019-04-26T06:22:31.930Z,980.17
2019-04-26T06:23:31.875Z,980.20
2019-04-26T06:24:31.823Z,980.22
2019-04-26T06:25:31.775Z,980.24
2019-04-26T06:26:31.719Z,980.16
2019-04-26T06:27:31.662Z,980.14
2019-04-26T06:28:31.611Z,980.11
2019-04-26T06:29:32.799Z,980.18
2019-04-26T06:30:31.505Z,980.26
2019-04-26T06:31:31.450Z,980.24
2019-04-26T06:32:31.482Z,980.26
2019-04-26T06:33:31.342Z,980.27
2019-04-26T06:34:31.291Z,980.26
2019-04-26T06:35:31.234Z,980.21
2019-04-26T06:36:31.181Z,980.24
2019-04-26T06:37:31.128Z,980.24
2019-04-26T06:38:43.069Z,980.26
2019-04-26T06:39:31.021Z,980.31
2019-04-26T06:40:41.672Z,980.31
2019-04-26T06:41:30.915Z,980.34
2019-04-26T06:42:30.861Z,980.38
2019-04-26T06:43:30.807Z,980.40
2019-04-26T06:44:30.754Z,980.46
2019-04-26T06:45:30.701Z,980.47
2019-04-26T06:46:30.653Z,980.49
2019-04-26T06:47:30.595Z,980.49
2019-04-26T06:48:30.540Z,980.51
2019-04-26T06:49:30.487Z,980.51
2019-04-26T06:50:30.434Z,980.54
2019-04-26T06:51:30.383Z,980.56
2019-04-26T06:52:30.326Z,980.56
2019-04-26T06:53:30.274Z,980.56
2019-04-26T06:54:30.220Z,980.58
2019-04-26T06:55:30.165Z,980.58
2019-04-26T06:56:30.111Z,980.63
2019-04-26T06:57:30.061Z,980.64
2019-04-26T06:58:30.007Z,980.61
2019-04-26T06:59:36.205Z,980.67
2019-04-26T07:00:29.899Z,980.63
2019-04-26T07:01:29.846Z,980.66
2019-04-26T07:02:29.794Z,980.67
2019-04-26T07:03:29.741Z,980.68
2019-04-26T07:04:29.684Z,980.71
2019-04-26T07:05:29.631Z,980.73
2019-04-26T07:06:35.124Z,980.75
2019-04-26T07:07:29.524Z,980.77
2019-04-26T07:08:29.471Z,980.77
2019-04-26T07:09:29.424Z,980.76
2019-04-26T07:10:29.363Z,980.80
2019-04-26T07:11:29.309Z,980.76
2019-04-26T07:12:29.262Z,980.79
2019-04-26T07:13:29.203Z,980.80
2019-04-26T07:14:29.151Z,980.83
2019-04-26T07:15:29.143Z,980.79
2019-04-26T07:16:29.042Z,980.80
2019-04-26T07:17:28.989Z,980.79
2019-04-26T07:18:28.936Z,980.76
2019-04-26T07:19:28.881Z,980.77
2019-04-26T07:20:28.828Z,980.69
2019-04-26T07:21:28.775Z,980.71
2019-04-26T07:22:35.164Z,980.69
2019-04-26T07:23:28.667Z,980.72
2019-04-26T07:24:28.615Z,980.67
2019-04-26T07:25:28.560Z,980.72
2019-04-26T07:26:28.507Z,980.81
2019-04-26T07:27:28.455Z,980.82
2019-04-26T07:28:28.456Z,980.78
2019-04-26T07:29:28.347Z,980.82
2019-04-26T07:30:28.356Z,980.77
2019-04-26T07:31:28.240Z,980.74
2019-04-26T07:32:28.186Z,980.78
2019-04-26T07:33:28.134Z,980.72
2019-04-26T07:34:28.079Z,980.75
2019-04-26T07:35:28.025Z,980.78
2019-04-26T07:36:27.971Z,980.81
2019-04-26T07:37:27.918Z,980.79
2019-04-26T07:38:27.864Z,980.82
2019-04-26T07:39:27.810Z,980.82
2019-04-26T07:40:27.758Z,980.85
2019-04-26T07:41:27.711Z,980.85
2019-04-26T07:42:27.653Z,980.93
2019-04-26T07:43:27.597Z,980.97
2019-04-26T07:44:27.543Z,980.99
2019-04-26T07:45:27.491Z,980.99
2019-04-26T07:46:27.438Z,981.00
2019-04-26T07:47:27.383Z,981.00
2019-04-26T07:48:27.328Z,980.94
2019-04-26T07:49:27.275Z,980.98
2019-04-26T07:50:27.225Z,981.02
2019-04-26T07:51:27.170Z,981.06
2019-04-26T07:52:27.114Z,981.11
2019-04-26T07:53:27.060Z,981.20
2019-04-26T07:54:27.008Z,981.23
2019-04-26T07:55:26.953Z,981.32
2019-04-26T07:56:26.900Z,981.39
2019-04-26T07:57:26.846Z,981.40
2019-04-26T07:58:26.794Z,981.34
2019-04-26T07:59:26.740Z,981.42
2019-04-26T08:00:26.685Z,981.34
2019-04-26T08:01:26.632Z,981.30
2019-04-26T08:02:26.580Z,981.29
2019-04-26T08:03:26.525Z,981.32
2019-04-26T08:04:29.552Z,981.34
2019-04-26T08:05:26.418Z,981.39
2019-04-26T08:06:26.364Z,981.45
2019-04-26T08:07:26.309Z,981.52
2019-04-26T08:08:26.258Z,981.60
2019-04-26T08:09:27.539Z,981.62
2019-04-26T08:10:26.149Z,981.69
2019-04-26T08:11:26.096Z,981.65
2019-04-26T08:12:26.042Z,981.68
2019-04-26T08:13:25.988Z,981.69
2019-04-26T08:14:25.935Z,981.69
2019-04-26T08:15:25.882Z,981.73
2019-04-26T08:16:25.829Z,981.68
2019-04-26T08:17:25.773Z,981.71
2019-04-26T08:18:25.723Z,981.73
2019-04-26T08:19:25.667Z,981.73
2019-04-26T08:20:28.278Z,981.70
2019-04-26T08:21:25.561Z,981.73
2019-04-26T08:22:28.622Z,981.77
2019-04-26T08:23:38.501Z,981.73
2019-04-26T08:24:27.965Z,981.78
2019-04-26T08:25:25.348Z,981.74
2019-04-26T08:26:26.366Z,981.73
2019-04-26T08:27:25.236Z,981.68
2019-04-26T08:28:25.182Z,981.63
2019-04-26T08:29:25.133Z,981.57
2019-04-26T08:30:25.078Z,981.58
2019-04-26T08:31:26.253Z,981.59
2019-04-26T08:32:28.210Z,981.63
2019-04-26T08:33:24.914Z,981.69
2019-04-26T08:34:28.942Z,981.70
2019-04-26T08:35:24.807Z,981.71
2019-04-26T08:36:27.188Z,981.79
2019-04-26T08:37:24.699Z,981.77
2019-04-26T08:38:24.647Z,981.80
2019-04-26T08:39:32.549Z,981.85
2019-04-26T08:40:30.732Z,981.89
2019-04-26T08:41:24.484Z,981.92
2019-04-26T08:42:25.136Z,981.89
2019-04-26T08:43:27.396Z,981.94
2019-04-26T08:44:24.327Z,981.89
2019-04-26T08:45:24.269Z,981.85
2019-04-26T08:46:24.229Z,981.88
2019-04-26T08:47:26.407Z,981.83
2019-04-26T08:48:27.618Z,981.85
2019-04-26T08:49:24.054Z,981.78
2019-04-26T08:50:24.001Z,981.80
2019-04-26T08:51:23.980Z,981.79
2019-04-26T08:52:23.894Z,981.81
2019-04-26T08:53:23.840Z,981.84
2019-04-26T08:54:23.786Z,981.81
2019-04-26T08:55:23.731Z,981.84
2019-04-26T08:56:23.681Z,981.83
2019-04-26T08:57:23.624Z,981.85
2019-04-26T08:58:23.571Z,981.83
2019-04-26T08:59:23.523Z,981.82
2019-04-26T09:00:23.468Z,981.80
2019-04-26T09:01:23.411Z,981.86
2019-04-26T09:02:23.409Z,981.88
2019-04-26T09:03:23.301Z,981.88
2019-04-26T09:04:23.251Z,981.94
2019-04-26T09:05:23.199Z,982.01
2019-04-26T09:06:23.144Z,982.02
2019-04-26T09:07:23.099Z,982.02
2019-04-26T09:08:23.034Z,982.04
2019-04-26T09:09:22.980Z,982.04
2019-04-26T09:10:22.928Z,982.01
2019-04-26T09:11:29.954Z,982.02
2019-04-26T09:12:23.640Z,982.00
2019-04-26T09:13:22.765Z,982.00
2019-04-26T09:14:22.711Z,981.98
2019-04-26T09:15:22.657Z,981.99
2019-04-26T09:16:22.602Z,982.05
2019-04-26T09:17:22.549Z,982.12
2019-04-26T09:18:22.497Z,982.12
2019-04-26T09:19:22.443Z,982.14
2019-04-26T09:20:28.611Z,982.15
2019-04-26T09:21:22.337Z,982.21
2019-04-26T09:22:22.765Z,982.25
2019-04-26T09:23:22.227Z,982.29
2019-04-26T09:24:25.108Z,982.28
2019-04-26T09:25:22.775Z,982.33
2019-04-26T09:26:22.119Z,982.27
2019-04-26T09:27:22.552Z,982.27
2019-04-26T09:28:21.961Z,982.26
2019-04-26T09:29:21.903Z,982.27
2019-04-26T09:30:33.273Z,982.22
2019-04-26T09:31:21.796Z,982.19
2019-04-26T09:32:24.192Z,982.17
2019-04-26T09:33:21.732Z,982.14
2019-04-26T09:34:21.635Z,982.20
2019-04-26T09:35:21.580Z,982.15
2019-04-26T09:36:21.536Z,982.20
2019-04-26T09:37:21.475Z,982.22
2019-04-26T09:38:21.421Z,982.26
2019-04-26T09:39:21.366Z,982.24
2019-04-26T09:40:22.705Z,982.29
2019-04-26T09:41:21.259Z,982.34
2019-04-26T09:42:21.206Z,982.32
2019-04-26T09:43:21.151Z,982.36
2019-04-26T09:44:21.096Z,982.37
2019-04-26T09:45:21.049Z,982.35
2019-04-26T09:46:20.993Z,982.44
2019-04-26T09:47:20.935Z,982.41
2019-04-26T09:48:20.883Z,982.35
2019-04-26T09:49:20.833Z,982.41
2019-04-26T09:50:20.774Z,982.37
2019-04-26T09:51:20.719Z,982.40
2019-04-26T09:52:20.665Z,982.36
2019-04-26T09:53:20.621Z,982.38
2019-04-26T09:54:20.562Z,982.44
2019-04-26T09:55:20.505Z,982.42
2019-04-26T09:56:20.451Z,982.43
2019-04-26T09:57:20.398Z,982.45
2019-04-26T09:58:20.343Z,982.49
2019-04-26T09:59:20.288Z,982.49
2019-04-26T10:00:20.235Z,982.54
2019-04-26T10:01:24.190Z,982.57
2019-04-26T10:02:20.129Z,982.59
2019-04-26T10:03:20.073Z,982.60
2019-04-26T10:04:20.023Z,982.61
2019-04-26T10:05:22.257Z,982.56
2019-04-26T10:06:19.914Z,982.52
2019-04-26T10:07:19.858Z,982.50
2019-04-26T10:08:19.805Z,982.45
2019-04-26T10:09:21.157Z,982.43
2019-04-26T10:10:22.957Z,982.40
2019-04-26T10:11:19.643Z,982.43
2019-04-26T10:12:19.588Z,982.39
2019-04-26T10:13:19.535Z,982.40
2019-04-26T10:14:19.482Z,982.43
2019-04-26T10:15:22.393Z,982.46
2019-04-26T10:16:19.372Z,982.44
2019-04-26T10:17:19.320Z,982.45
2019-04-26T10:18:20.458Z,982.47
2019-04-26T10:19:19.212Z,982.52
2019-04-26T10:20:19.158Z,982.49
2019-04-26T10:21:19.104Z,982.40
2019-04-26T10:22:19.050Z,982.42
2019-04-26T10:23:18.996Z,982.41
2019-04-26T10:24:18.948Z,982.37
2019-04-26T10:25:18.890Z,982.40
2019-04-26T10:26:18.836Z,982.40
2019-04-26T10:27:18.780Z,982.33
2019-04-26T10:28:18.727Z,982.30
2019-04-26T10:29:21.655Z,982.28
2019-04-26T10:30:18.619Z,982.27
2019-04-26T10:31:18.712Z,982.23
2019-04-26T10:32:21.884Z,982.22
2019-04-26T10:33:18.468Z,982.23
2019-04-26T10:34:18.403Z,982.25
2019-04-26T10:35:21.791Z,982.29
2019-04-26T10:36:18.295Z,982.27
2019-04-26T10:37:18.242Z,982.29
2019-04-26T10:38:19.385Z,982.28
2019-04-26T10:39:18.135Z,982.26
2019-04-26T10:40:18.080Z,982.25
2019-04-26T10:41:18.026Z,982.22
2019-04-26T10:42:17.972Z,982.22
2019-04-26T10:43:17.923Z,982.24
2019-04-26T10:44:17.864Z,982.22
2019-04-26T10:45:17.811Z,982.22
2019-04-26T10:46:17.757Z,982.19
2019-04-26T10:47:17.702Z,982.18
2019-04-26T10:48:17.650Z,982.21
2019-04-26T10:49:20.403Z,982.21
2019-04-26T10:50:17.543Z,982.24
2019-04-26T10:51:17.485Z,982.29
2019-04-26T10:52:17.433Z,982.33
2019-04-26T10:53:17.383Z,982.36
2019-04-26T10:54:17.324Z,982.33
2019-04-26T10:55:17.561Z,982.32
2019-04-26T10:56:20.193Z,982.39
2019-04-26T10:57:17.163Z,982.39
2019-04-26T10:58:17.111Z,982.38
2019-04-26T10:59:17.054Z,982.42
2019-04-26T11:00:18.087Z,982.46
2019-04-26T11:01:17.006Z,982.43
2019-04-26T11:02:16.894Z,982.46
2019-04-26T11:03:16.842Z,982.45
2019-04-26T11:04:16.784Z,982.47
2019-04-26T11:05:18.403Z,982.49
2019-04-26T11:06:16.683Z,982.52
2019-04-26T11:07:16.622Z,982.50
2019-04-26T11:08:16.572Z,982.58
2019-04-26T11:09:16.521Z,982.58
2019-04-26T11:10:16.462Z,982.66
2019-04-26T11:11:16.407Z,982.62
2019-04-26T11:12:16.353Z,982.67
2019-04-26T11:13:16.299Z,982.65
2019-04-26T11:14:18.262Z,982.64
2019-04-26T11:15:16.191Z,982.66
2019-04-26T11:16:16.140Z,982.65
2019-04-26T11:17:17.725Z,982.69
2019-04-26T11:18:19.866Z,982.74
2019-04-26T11:19:15.976Z,982.78
2019-04-26T11:20:15.922Z,982.79
2019-04-26T11:21:16.271Z,982.76
2019-04-26T11:22:28.375Z,982.74
2019-04-26T11:23:15.760Z,982.69
2019-04-26T11:24:19.557Z,982.68
2019-04-26T11:25:15.653Z,982.65
2019-04-26T11:26:16.687Z,982.68
2019-04-26T11:27:15.548Z,982.69
2019-04-26T11:28:17.307Z,982.69
2019-04-26T11:29:15.442Z,982.69
2019-04-26T11:30:20.681Z,982.70
2019-04-26T11:31:15.328Z,982.68
2019-04-26T11:32:15.275Z,982.67
2019-04-26T11:33:15.219Z,982.75
2019-04-26T11:34:15.165Z,982.70
2019-04-26T11:35:15.112Z,982.74
2019-04-26T11:36:15.085Z,982.78
2019-04-26T11:37:17.868Z,982.77
2019-04-26T11:38:14.980Z,982.73
2019-04-26T11:39:14.905Z,982.74
2019-04-26T11:40:15.866Z,982.69
2019-04-26T11:41:14.789Z,982.72
2019-04-26T11:42:14.735Z,982.73
2019-04-26T11:43:15.755Z,982.79
2019-04-26T11:44:14.628Z,982.80
2019-04-26T11:45:16.026Z,982.82
2019-04-26T11:46:14.518Z,982.76
2019-04-26T11:47:14.464Z,982.77
2019-04-26T11:48:14.409Z,982.73
2019-04-26T11:49:14.356Z,982.63
2019-04-26T11:50:16.213Z,982.64
2019-04-26T11:51:14.259Z,982.68
2019-04-26T11:52:14.195Z,982.66
2019-04-26T11:53:14.140Z,982.73
2019-04-26T11:54:17.001Z,982.76
2019-04-26T11:55:14.942Z,982.77
2019-04-26T11:56:13.978Z,982.79
2019-04-26T11:57:13.927Z,982.80
2019-04-26T11:58:13.870Z,982.87
2019-04-26T11:59:13.817Z,982.87
2019-04-26T12:00:13.770Z,982.92
2019-04-26T12:01:13.708Z,982.90
2019-04-26T12:02:16.226Z,982.92
2019-04-26T12:03:13.603Z,982.87
2019-04-26T12:04:13.546Z,982.82
2019-04-26T12:05:13.493Z,982.84
2019-04-26T12:06:13.437Z,982.82
2019-04-26T12:07:13.386Z,982.78
2019-04-26T12:08:13.330Z,982.81
2019-04-26T12:09:13.283Z,982.83
2019-04-26T12:10:13.226Z,982.81
2019-04-26T12:11:18.664Z,982.77
2019-04-26T12:12:14.315Z,982.78
2019-04-26T12:13:13.100Z,982.83
2019-04-26T12:14:20.198Z,982.81
2019-04-26T12:15:12.952Z,982.78
2019-04-26T12:16:14.602Z,982.79
2019-04-26T12:17:12.851Z,982.78
2019-04-26T12:18:12.892Z,982.77
2019-04-26T12:19:14.257Z,982.76
2019-04-26T12:20:12.682Z,982.79
2019-04-26T12:21:12.643Z,982.76
2019-04-26T12:22:12.576Z,982.79
2019-04-26T12:23:13.657Z,982.80
2019-04-26T12:24:12.465Z,982.82
2019-04-26T12:25:12.415Z,982.78
2019-04-26T12:26:12.358Z,982.78
2019-04-26T12:27:12.398Z,982.80
2019-04-26T12:28:12.311Z,982.81